Time;durP1;ratioP1;P1;durP2;ratioP2;P2;SDS_P1;SDS_P2;PMS_P1;PMS_P2;Temp;Humidity;BMP_temperature;BMP_pressure;BME280_temperature;BME280_humidity;BME280_pressure;Samples;Min_cycle;Max_cycle;Signal;HPM_P1;HPM_P2
2022/05/18 00:01:00;;;;;;;4.20;2.05;;;17.50;99.90;;;;;;5091042;28;20067;-78
2022/05/18 00:03:30;;;;;;;2.45;1.80;;;17.50;99.90;;;;;;5073832;28;20499;-79
2022/05/18 00:06:00;;;;;;;2.58;1.60;;;17.50;99.90;;;;;;5091111;28;20391;-79
2022/05/18 00:08:27;;;;;;;2.03;1.42;;;17.40;99.90;;;;;;5090588;28;20047;-78
2022/05/18 00:10:53;;;;;;;2.88;1.60;;;17.40;99.90;;;;;;5091020;28;20453;-78
2022/05/18 00:13:18;;;;;;;;;;;17.40;99.90;;;;;;5091684;28;20048;-79
2022/05/18 00:15:45;;;;;;;2.67;1.98;;;17.30;99.90;;;;;;5125036;27;20394;-79
2022/05/18 00:18:11;;;;;;;3.92;1.50;;;17.30;99.90;;;;;;5090621;28;20036;-78
2022/05/18 00:20:37;;;;;;;3.72;2.20;;;17.20;99.90;;;;;;5073546;28;20063;-79
2022/05/18 00:23:04;;;;;;;1.88;1.50;;;17.20;99.90;;;;;;5090853;28;20048;-79
2022/05/18 00:25:34;;;;;;;4.07;1.73;;;17.20;99.90;;;;;;5074524;28;20101;-77
2022/05/18 00:28:00;;;;;;;3.17;1.95;;;17.20;99.90;;;;;;5073788;28;20567;-77
2022/05/18 00:30:27;;;;;;;3.40;2.58;;;17.10;99.90;;;;;;5090724;28;20118;-78
2022/05/18 00:32:53;;;;;;;2.60;2.03;;;17.10;99.90;;;;;;5090642;28;20052;-78
2022/05/18 00:35:19;;;;;;;;;;;17.00;99.90;;;;;;5091033;28;20130;-78
2022/05/18 00:37:45;;;;;;;5.53;2.50;;;17.00;99.90;;;;;;5124736;27;19976;-79
2022/05/18 00:40:14;;;;;;;;;;;17.00;99.90;;;;;;5074323;28;20086;-79
2022/05/18 00:42:40;;;;;;;5.60;2.70;;;17.00;99.90;;;;;;5107177;28;20366;-70
2022/05/18 00:45:06;;;;;;;4.03;2.25;;;17.00;99.90;;;;;;5090092;28;20040;-70
2022/05/18 00:47:32;;;;;;;5.28;2.83;;;16.90;99.90;;;;;;5090098;28;20048;-70
2022/05/18 00:50:27;;;;;;;3.67;2.10;;;16.90;99.90;;;;;;5073279;28;20044;-70
2022/05/18 00:53:04;;;;;;;4.25;2.40;;;16.90;99.90;;;;;;5123280;28;20491;-70
2022/05/18 00:55:34;;;;;;;3.15;2.20;;;16.90;99.90;;;;;;5090124;28;20100;-70
2022/05/18 00:58:21;;;;;;;3.50;2.15;;;16.80;99.90;;;;;;5089964;28;20509;-70
2022/05/18 01:00:50;;;;;;;3.25;1.90;;;16.80;99.90;;;;;;5090000;28;20044;-70
2022/05/18 01:03:21;;;;;;;3.95;2.40;;;16.80;99.90;;;;;;5090042;28;20093;-70
2022/05/18 01:05:52;;;;;;;5.38;2.10;;;16.80;99.90;;;;;;5091128;28;20118;-79
2022/05/18 01:08:43;;;;;;;3.20;2.50;;;16.80;99.90;;;;;;5091563;28;20509;-71
2022/05/18 01:11:09;;;;;;;3.67;2.42;;;16.70;99.90;;;;;;5123379;28;20056;-72
2022/05/18 01:13:35;;;;;;;2.67;2.10;;;16.70;99.90;;;;;;5073140;28;20036;-73
2022/05/18 01:16:00;;;;;;;3.55;2.05;;;16.70;99.90;;;;;;5089995;28;20076;-73
2022/05/18 01:18:27;;;;;;;3.22;2.47;;;16.70;99.90;;;;;;5089991;28;20040;-73
2022/05/18 01:20:54;;;;;;;3.45;2.50;;;16.70;99.90;;;;;;5073027;28;20073;-73
2022/05/18 01:23:38;;;;;;;3.65;2.47;;;16.60;99.90;;;;;;5073312;28;20036;-73
2022/05/18 01:26:07;;;;;;;4.65;2.33;;;16.60;99.90;;;;;;5073046;28;20040;-73
2022/05/18 01:28:38;;;;;;;5.03;2.67;;;16.60;99.90;;;;;;5090002;28;20390;-73
2022/05/18 01:31:04;;;;;;;4.72;2.70;;;16.60;99.90;;;;;;5090069;28;20040;-73
2022/05/18 01:33:31;;;;;;;3.67;2.30;;;16.60;99.90;;;;;;5076831;28;20055;-73
2022/05/18 01:35:57;;;;;;;3.58;2.45;;;16.60;99.90;;;;;;5093584;28;20466;-73
2022/05/18 01:38:23;;;;;;;2.55;1.80;;;16.60;99.90;;;;;;5127648;27;20127;-72
2022/05/18 01:41:03;;;;;;;3.67;2.10;;;16.60;99.90;;;;;;5093631;28;20109;-73
2022/05/18 01:43:46;;;;;;;3.45;2.28;;;16.50;99.90;;;;;;5095241;28;20058;-73
2022/05/18 01:46:14;;;;;;;3.13;2.03;;;16.50;99.90;;;;;;5093283;28;20040;-72
2022/05/18 01:48:45;;;;;;;3.35;2.72;;;16.50;99.90;;;;;;5127714;27;20044;-72
2022/05/18 01:51:12;;;;;;;4.18;2.40;;;16.50;99.90;;;;;;5093674;28;20040;-73
2022/05/18 01:53:38;;;;;;;3.13;2.53;;;16.40;99.90;;;;;;5093349;28;20051;-72
2022/05/18 01:56:04;;;;;;;3.50;2.00;;;16.40;99.90;;;;;;5093173;28;20040;-73
2022/05/18 01:58:30;;;;;;;2.58;1.70;;;16.40;99.90;;;;;;5093024;28;20043;-72
2022/05/18 02:00:56;;;;;;;3.65;2.08;;;16.40;99.90;;;;;;5076181;28;20105;-72
2022/05/18 02:03:22;;;;;;;2.78;2.28;;;16.30;99.90;;;;;;5093363;28;20384;-72
2022/05/18 02:05:50;;;;;;;4.18;2.30;;;16.30;99.90;;;;;;5076084;28;20040;-72
2022/05/18 02:08:16;;;;;;;2.97;1.95;;;16.30;99.90;;;;;;5093199;28;20032;-72
2022/05/18 02:10:43;;;;;;;2.45;1.50;;;16.30;99.90;;;;;;5093016;28;20841;-72
2022/05/18 02:13:10;;;;;;;3.38;2.20;;;16.30;99.90;;;;;;5093250;28;20051;-72
2022/05/18 02:15:36;;;;;;;2.42;1.90;;;16.30;99.90;;;;;;5076469;28;20056;-72
2022/05/18 02:18:02;;;;;;;3.53;1.83;;;16.30;99.90;;;;;;5092887;28;20044;-72
2022/05/18 02:20:27;;;;;;;;;;;16.30;99.90;;;;;;5094053;28;20454;-72
2022/05/18 02:22:53;;;;;;;3.05;2.17;;;16.30;99.90;;;;;;5126969;27;19927;-72
2022/05/18 02:25:19;;;;;;;3.70;2.38;;;16.20;99.90;;;;;;5093147;28;20059;-72
2022/05/18 02:27:46;;;;;;;3.03;2.38;;;16.20;99.90;;;;;;5092925;28;20032;-73
2022/05/18 02:30:12;;;;;;;2.60;2.20;;;16.20;99.90;;;;;;5075925;28;20364;-73
2022/05/18 02:32:38;;;;;;;2.13;1.60;;;16.20;99.90;;;;;;5075572;28;20040;-72
2022/05/18 02:35:05;;;;;;;2.50;1.80;;;16.20;99.90;;;;;;5092709;28;20097;-72
2022/05/18 02:37:32;;;;;;;3.70;2.30;;;16.20;99.90;;;;;;5092459;28;20056;-72
2022/05/18 02:39:58;;;;;;;2.72;1.50;;;16.20;99.90;;;;;;5075678;28;20448;-72
2022/05/18 02:42:23;;;;;;;1.48;1.20;;;16.20;99.90;;;;;;5091984;28;20130;-73
2022/05/18 02:44:49;;;;;;;2.60;1.67;;;16.10;99.90;;;;;;5075676;28;20150;-73
2022/05/18 02:47:15;;;;;;;2.72;1.52;;;16.10;99.90;;;;;;5092549;28;20483;-73
2022/05/18 02:49:41;;;;;;;2.05;1.20;;;16.10;99.90;;;;;;5092379;28;20398;-73
2022/05/18 02:52:07;;;;;;;1.83;1.30;;;16.00;99.90;;;;;;5092257;28;20044;-73
2022/05/18 02:57:19;;;;;;;4.30;2.20;;;16.00;99.90;;;;;;5091987;28;20054;-73
2022/05/18 02:59:45;;;;;;;3.17;2.20;;;16.00;99.90;;;;;;5091788;28;20064;-73
2022/05/18 03:02:11;;;;;;;2.50;1.83;;;16.00;99.90;;;;;;5091811;28;20056;-73
2022/05/18 03:04:37;;;;;;;2.40;1.80;;;15.90;99.90;;;;;;5075041;28;20032;-73
2022/05/18 03:07:03;;;;;;;4.07;2.38;;;15.90;99.90;;;;;;5091828;28;20048;-72
2022/05/18 03:09:28;;;;;;;3.65;2.42;;;15.90;99.90;;;;;;5093071;28;20048;-72
2022/05/18 03:11:55;;;;;;;2.88;2.38;;;15.90;99.90;;;;;;5092110;28;20087;-72
2022/05/18 03:14:21;;;;;;;1.90;1.65;;;15.90;99.90;;;;;;5091700;28;20471;-72
2022/05/18 03:16:47;;;;;;;2.50;1.67;;;15.80;99.90;;;;;;5091695;28;20100;-72
2022/05/18 03:19:13;;;;;;;;;;;15.80;99.90;;;;;;5091931;28;20043;-72
2022/05/18 03:24:23;;;;;;;2.03;1.35;;;15.70;99.90;;;;;;5091240;28;20101;-72
2022/05/18 03:26:49;;;;;;;2.05;1.60;;;15.60;99.90;;;;;;5091669;28;20047;-72
2022/05/18 03:29:14;;;;;;;2.90;2.00;;;15.70;99.90;;;;;;5091115;28;20435;-72
2022/05/18 03:31:40;;;;;;;2.13;1.70;;;15.70;99.90;;;;;;5091127;28;20047;-72
2022/05/18 03:34:08;;;;;;;3.25;2.33;;;15.70;99.90;;;;;;5091131;28;20131;-72
2022/05/18 03:36:34;;;;;;;3.20;2.03;;;15.60;99.90;;;;;;5091094;28;20052;-73
2022/05/18 03:39:01;;;;;;;2.28;1.73;;;15.60;99.90;;;;;;5092679;28;20125;-72
2022/05/18 03:41:26;;;;;;;2.00;1.40;;;15.60;99.90;;;;;;5091128;28;20055;-72
2022/05/18 03:43:52;;;;;;;2.45;1.63;;;15.60;99.90;;;;;;5091174;28;20040;-73
2022/05/18 03:46:18;;;;;;;3.28;2.10;;;15.60;99.90;;;;;;5091574;28;20063;-73
2022/05/18 03:48:44;;;;;;;4.68;2.25;;;15.60;99.90;;;;;;5090937;28;20402;-73
2022/05/18 03:51:13;;;;;;;2.53;1.90;;;15.60;99.90;;;;;;5091174;28;20506;-73
2022/05/18 03:53:39;;;;;;;3.33;2.28;;;15.60;99.90;;;;;;5073811;28;20060;-73
2022/05/18 03:56:05;;;;;;;;;;;15.60;99.90;;;;;;5091063;28;20042;-73
2022/05/18 03:58:31;;;;;;;3.17;2.15;;;15.60;99.90;;;;;;5124895;27;19933;-73
2022/05/18 04:01:00;;;;;;;3.28;2.15;;;15.60;99.90;;;;;;5090601;28;20113;-73
2022/05/18 04:03:27;;;;;;;3.80;2.30;;;15.50;99.90;;;;;;5090943;28;20067;-73
2022/05/18 04:05:54;;;;;;;4.53;2.50;;;15.50;99.90;;;;;;5090903;28;20036;-73
2022/05/18 04:08:20;;;;;;;;;;;15.50;99.90;;;;;;5074262;28;20525;-73
2022/05/18 04:10:46;;;;;;;3.75;2.35;;;15.60;99.90;;;;;;5124832;27;19920;-73
2022/05/18 04:13:12;;;;;;;;;;;15.50;99.90;;;;;;5091419;28;20467;-71
2022/05/18 04:15:38;;;;;;;4.65;2.95;;;15.50;99.90;;;;;;5124685;27;19916;-72
2022/05/18 04:18:04;;;;;;;4.20;2.63;;;15.60;99.90;;;;;;5073759;28;20070;-72
2022/05/18 04:20:30;;;;;;;2.95;2.35;;;15.60;99.90;;;;;;5073503;28;20177;-72
2022/05/18 04:22:56;;;;;;;4.75;2.78;;;15.60;99.90;;;;;;5090335;28;20071;-72
2022/05/18 04:25:25;;;;;;;3.28;2.30;;;15.70;99.90;;;;;;5073517;28;20042;-72
2022/05/18 04:27:51;;;;;;;2.20;1.90;;;15.60;99.90;;;;;;5073502;28;20063;-72
2022/05/18 04:30:18;;;;;;;;;;;15.70;99.90;;;;;;5090588;28;20048;-72
2022/05/18 04:32:44;;;;;;;5.00;1.90;;;15.70;99.90;;;;;;5107176;28;19996;-72
2022/05/18 04:35:12;;;;;;;;;;;15.70;99.90;;;;;;5090519;28;20052;-72
2022/05/18 04:37:38;;;;;;;3.20;2.40;;;15.70;99.90;;;;;;5124167;27;19919;-73
2022/05/18 04:40:06;;;;;;;3.33;2.30;;;15.70;99.90;;;;;;5056512;28;20083;-72
2022/05/18 04:42:31;;;;;;;3.17;2.20;;;15.80;99.90;;;;;;5090307;28;20094;-72
2022/05/18 04:44:57;;;;;;;3.65;2.20;;;15.80;99.90;;;;;;5124100;27;20503;-72
2022/05/18 04:47:24;;;;;;;3.53;2.20;;;15.90;99.90;;;;;;5090314;28;20070;-72
2022/05/18 04:49:51;;;;;;;5.13;2.70;;;15.90;99.90;;;;;;5090351;28;20123;-72
2022/05/18 04:52:21;;;;;;;5.13;2.78;;;15.90;99.90;;;;;;5091677;28;20412;-72
2022/05/18 04:54:48;;;;;;;3.80;2.55;;;16.00;99.90;;;;;;5090173;28;20360;-72
2022/05/18 04:57:14;;;;;;;3.53;2.50;;;16.00;99.90;;;;;;5089857;28;20082;-72
2022/05/18 04:59:40;;;;;;;3.70;2.47;;;16.10;99.90;;;;;;5090186;28;20047;-72
2022/05/18 05:02:06;;;;;;;2.28;2.03;;;16.10;99.90;;;;;;5090184;28;20048;-72
2022/05/18 05:04:33;;;;;;;5.07;2.88;;;16.10;99.90;;;;;;5090308;28;20216;-73
2022/05/18 05:06:59;;;;;;;4.43;2.88;;;16.20;99.90;;;;;;5092099;28;20043;-72
2022/05/18 05:09:26;;;;;;;;;;;16.30;99.90;;;;;;5077955;28;20395;-72
2022/05/18 05:11:52;;;;;;;4.25;2.55;;;16.30;99.90;;;;;;5128074;27;19966;-72
2022/05/18 05:14:19;;;;;;;3.20;2.10;;;16.40;99.90;;;;;;5093925;28;20047;-72
2022/05/18 05:16:45;;;;;;;3.13;2.10;;;16.40;99.90;;;;;;5093698;28;20105;-72
2022/05/18 05:19:11;;;;;;;;;;;16.50;99.90;;;;;;5094408;28;20050;-72
2022/05/18 05:21:41;;;;;;;3.88;2.47;;;16.50;99.90;;;;;;5127953;27;20314;-72
2022/05/18 05:24:08;;;;;;;3.47;2.45;;;16.60;99.90;;;;;;5093658;28;20040;-75
2022/05/18 05:26:34;;;;;;;5.68;2.63;;;16.60;99.90;;;;;;5093761;28;20056;-72
2022/05/18 05:29:05;;;;;;;3.58;2.60;;;16.60;99.90;;;;;;5093856;28;20051;-72
2022/05/18 05:31:32;;;;;;;4.38;2.90;;;16.70;99.90;;;;;;5094936;28;20043;-72
2022/05/18 05:33:58;;;;;;;3.90;2.90;;;16.80;99.90;;;;;;5093645;28;20503;-72
2022/05/18 05:36:25;;;;;;;2.95;2.40;;;16.90;99.90;;;;;;5093504;28;20491;-72
2022/05/18 05:38:51;;;;;;;2.67;2.20;;;17.00;99.90;;;;;;5093746;28;20052;-72
2022/05/18 05:41:17;;;;;;;3.90;2.72;;;17.10;99.90;;;;;;5093825;28;20601;-72
2022/05/18 05:43:43;;;;;;;4.85;2.40;;;17.10;99.90;;;;;;5093220;28;20044;-72
2022/05/18 05:46:13;;;;;;;4.53;2.00;;;17.30;99.90;;;;;;5094819;28;20043;-72
2022/05/18 05:48:41;;;;;;;3.22;2.05;;;17.40;99.90;;;;;;5076405;28;20046;-72
2022/05/18 05:51:12;;;;;;;3.15;2.10;;;17.60;99.90;;;;;;5093251;28;20051;-72
2022/05/18 05:53:42;;;;;;;4.97;2.90;;;17.80;99.90;;;;;;5094788;28;20040;-72
2022/05/18 05:56:09;;;;;;;3.92;2.65;;;18.10;99.90;;;;;;5076524;28;20075;-72
2022/05/18 05:58:36;;;;;;;4.05;2.60;;;18.20;99.90;;;;;;5093061;28;20566;-72
2022/05/18 06:01:04;;;;;;;3.78;2.65;;;18.40;99.90;;;;;;5092996;28;20126;-71
2022/05/18 06:03:30;;;;;;;3.22;2.35;;;18.50;99.90;;;;;;5092928;28;20123;-72
2022/05/18 06:05:56;;;;;;;;;;;18.80;99.90;;;;;;5093787;28;20469;-72
2022/05/18 06:08:23;;;;;;;4.53;2.80;;;19.30;99.90;;;;;;5127097;27;19923;-73
2022/05/18 06:10:48;;;;;;;4.85;3.25;;;19.90;99.90;;;;;;5094713;28;20083;-73
2022/05/18 06:13:14;;;;;;;;;;;20.10;99.90;;;;;;5093724;28;20075;-73
2022/05/18 06:15:41;;;;;;;3.85;2.35;;;20.20;99.90;;;;;;5126932;27;19971;-73
2022/05/18 06:18:12;;;;;;;4.10;2.75;;;20.10;99.90;;;;;;5093714;28;20502;-72
2022/05/18 06:20:38;;;;;;;;;;;20.10;99.90;;;;;;5076167;28;20048;-73
2022/05/18 06:23:07;;;;;;;3.13;2.50;;;19.90;99.90;;;;;;5127299;27;19926;-73
2022/05/18 06:25:34;;;;;;;3.95;2.80;;;19.80;99.90;;;;;;5093953;28;20479;-72
2022/05/18 06:28:00;;;;;;;3.85;3.05;;;19.80;99.90;;;;;;5092715;28;20123;-72
2022/05/18 06:30:26;;;;;;;;;;;19.80;99.90;;;;;;5093246;28;20193;-72
2022/05/18 06:32:53;;;;;;;4.78;2.90;;;19.80;99.90;;;;;;5126897;27;19916;-72
2022/05/18 06:35:19;;;;;;;4.95;2.83;;;19.80;99.90;;;;;;5092732;28;20490;-72
2022/05/18 06:37:45;;;;;;;4.03;2.70;;;19.90;99.90;;;;;;5093869;28;20076;-72
2022/05/18 06:40:11;;;;;;;4.95;3.80;;;19.90;99.90;;;;;;5093880;28;20380;-72
2022/05/18 06:42:38;;;;;;;4.65;3.30;;;19.90;99.90;;;;;;5092366;28;20040;-72
2022/05/18 06:45:05;;;;;;;4.50;2.78;;;19.90;99.90;;;;;;5092492;28;20043;-72
2022/05/18 06:47:31;;;;;;;3.25;2.78;;;20.00;99.90;;;;;;5093979;28;20040;-72
2022/05/18 06:49:57;;;;;;;5.40;3.40;;;20.10;99.90;;;;;;5092459;28;20441;-72
2022/05/18 06:52:23;;;;;;;3.92;3.30;;;20.30;99.90;;;;;;5092506;28;20054;-72
2022/05/18 06:54:49;;;;;;;;;;;20.30;99.90;;;;;;5075642;28;20415;-72
2022/05/18 06:57:16;;;;;;;4.03;2.80;;;20.40;99.90;;;;;;5108914;28;19973;-72
2022/05/18 06:59:41;;;;;;;5.20;3.60;;;20.60;99.90;;;;;;5091989;28;20123;-72
2022/05/18 07:02:07;;;;;;;;;;;20.80;99.90;;;;;;5092240;28;20139;-72
2022/05/18 07:04:33;;;;;;;3.97;2.80;;;20.90;99.90;;;;;;5075372;28;20002;-72
2022/05/18 07:07:00;;;;;;;4.75;3.10;;;21.10;99.90;;;;;;5091797;28;20052;-71
2022/05/18 07:09:27;;;;;;;3.80;2.72;;;21.40;99.90;;;;;;5092045;28;20097;-72
2022/05/18 07:11:55;;;;;;;2.63;2.22;;;21.70;99.90;;;;;;5091799;28;20083;-72
2022/05/18 07:14:26;;;;;;;5.53;4.00;;;21.80;99.90;;;;;;5091962;28;20105;-72
2022/05/18 07:16:52;;;;;;;5.03;3.25;;;21.80;99.90;;;;;;5093445;28;20044;-72
2022/05/18 07:19:19;;;;;;;4.10;3.08;;;22.00;99.90;;;;;;5091595;28;20093;-72
2022/05/18 07:21:47;;;;;;;4.65;2.95;;;22.20;99.90;;;;;;5091638;28;20118;-72
2022/05/18 07:24:14;;;;;;;3.50;2.92;;;22.50;99.90;;;;;;5091412;28;20101;-72
2022/05/18 07:26:40;;;;;;;3.75;2.65;;;22.70;99.90;;;;;;5091465;28;20044;-73
2022/05/18 07:29:06;;;;;;;2.50;2.20;;;22.90;99.90;;;;;;5090423;28;20555;-72
2022/05/18 07:32:08;;;;;;;5.07;2.55;;;23.10;99.90;;;;;;5074461;28;20082;-72
2022/05/18 07:34:21;;;;;;;4.65;3.10;;;23.10;99.90;;;;;;5091040;28;20052;-72
2022/05/18 07:36:47;;;;;;;5.43;3.55;;;23.10;99.90;;;;;;5093128;28;20036;-72
2022/05/18 07:39:13;;;;;;;5.47;3.10;;;23.20;99.90;;;;;;5092542;28;20091;-72
2022/05/18 07:41:40;;;;;;;3.47;2.90;;;23.30;99.90;;;;;;5074340;28;20086;-73
2022/05/18 07:44:05;;;;;;;4.43;3.20;;;23.50;99.90;;;;;;5091957;28;20392;-72
2022/05/18 07:46:32;;;;;;;6.53;3.08;;;23.80;99.90;;;;;;5091666;28;20050;-73
2022/05/18 07:48:58;;;;;;;5.93;4.22;;;24.30;99.90;;;;;;5091641;28;20048;-72
2022/05/18 07:51:24;;;;;;;5.78;3.03;;;24.60;99.90;;;;;;5091025;28;20040;-73
2022/05/18 07:53:50;;;;;;;5.90;3.38;;;24.90;99.90;;;;;;5074059;28;20048;-72
2022/05/18 07:56:15;;;;;;;4.53;2.88;;;25.10;99.90;;;;;;5091435;28;20052;-72
2022/05/18 07:58:41;;;;;;;3.63;2.33;;;25.00;99.90;;;;;;5073970;28;20130;-72
2022/05/18 08:01:09;;;;;;;3.75;2.08;;;24.90;99.90;;;;;;5090774;28;20078;-73
2022/05/18 08:03:37;;;;;;;3.13;2.15;;;24.90;99.90;;;;;;5090729;28;20101;-73
2022/05/18 08:06:03;;;;;;;2.90;2.10;;;24.90;99.90;;;;;;5090921;28;20040;-73
2022/05/18 08:08:29;;;;;;;3.05;2.00;;;24.90;99.90;;;;;;5091038;28;20036;-73
2022/05/18 08:16:25;;;;;;;3.05;2.08;;;25.60;97.20;;;;;;5090549;28;20082;-73
2022/05/18 08:18:50;;;;;;;3.60;2.00;;;25.70;97.60;;;;;;5073473;28;20044;-73
2022/05/18 08:21:17;;;;;;;4.28;2.40;;;25.90;96.20;;;;;;5090381;28;20051;-73
2022/05/18 08:23:43;;;;;;;3.85;1.70;;;25.90;94.80;;;;;;5090199;28;20043;-73
2022/05/18 08:26:09;;;;;;;3.13;1.50;;;26.00;95.20;;;;;;5090605;28;20048;-73
2022/05/18 08:28:34;;;;;;;2.10;1.35;;;26.00;94.30;;;;;;5090349;28;20119;-73
2022/05/18 08:31:00;;;;;;;2.03;1.50;;;26.10;95.00;;;;;;5090487;28;20118;-73
2022/05/18 08:33:28;;;;;;;3.80;1.60;;;25.90;93.60;;;;;;5090634;28;20135;-73
2022/05/18 08:35:54;;;;;;;3.83;1.33;;;25.80;93.30;;;;;;5090251;28;20051;-73
2022/05/18 08:38:20;;;;;;;2.35;1.30;;;26.10;94.00;;;;;;5090281;28;20108;-73
2022/05/18 08:40:52;;;;;;;2.08;1.20;;;26.30;93.20;;;;;;5089890;28;20500;-74
2022/05/18 08:43:39;;;;;;;1.98;1.20;;;26.20;92.40;;;;;;5091562;28;20474;-73
2022/05/18 08:46:44;;;;;;;2.05;1.30;;;26.30;92.90;;;;;;5090440;28;20097;-74
2022/05/18 08:49:24;;;;;;;2.17;1.50;;;26.20;93.00;;;;;;5113705;28;20154;-74
2022/05/18 08:51:58;;;;;;;2.20;1.40;;;26.30;93.10;;;;;;5090355;28;20051;-74
2022/05/18 08:54:42;;;;;;;3.75;1.77;;;26.30;92.20;;;;;;5089972;28;20048;-74
2022/05/18 08:57:26;;;;;;;2.28;1.02;;;26.30;91.80;;;;;;5090154;28;20048;-74
2022/05/18 08:59:56;;;;;;;2.92;1.48;;;26.50;91.70;;;;;;5089824;28;20059;-74
2022/05/18 09:02:31;;;;;;;2.38;1.25;;;26.50;91.40;;;;;;5089856;28;20525;-74
2022/05/18 09:05:00;;;;;;;1.73;1.10;;;26.80;92.10;;;;;;5073103;28;20055;-74
2022/05/18 09:07:44;;;;;;;2.13;1.50;;;27.10;91.40;;;;;;5089889;28;20044;-73
2022/05/18 09:10:23;;;;;;;2.80;1.33;;;27.30;90.90;;;;;;5089795;28;20050;-73
2022/05/18 09:12:50;;;;;;;3.10;1.65;;;27.50;90.80;;;;;;5089964;28;20055;-73
2022/05/18 09:15:55;;;;;;;2.72;1.40;;;27.20;88.80;;;;;;5089812;28;20480;-73
2022/05/18 09:18:23;;;;;;;3.65;1.80;;;27.20;89.20;;;;;;5106315;28;20055;-73
2022/05/18 09:21:09;;;;;;;2.78;1.70;;;27.20;88.80;;;;;;5089763;28;20039;-72
2022/05/18 09:23:55;;;;;;;4.40;2.53;;;27.30;90.20;;;;;;5089882;28;20543;-73
2022/05/18 09:26:40;;;;;;;4.32;1.90;;;27.10;88.30;;;;;;5091036;28;20036;-73
2022/05/18 09:29:11;;;;;;;3.92;2.10;;;27.00;89.80;;;;;;5072869;28;20550;-73
2022/05/18 09:31:43;;;;;;;4.80;2.30;;;27.40;90.10;;;;;;5089935;28;20445;-73
2022/05/18 09:34:47;;;;;;;3.65;2.03;;;27.10;89.60;;;;;;5089750;28;20458;-73
2022/05/18 09:37:32;;;;;;;3.00;2.15;;;27.40;90.00;;;;;;5105528;28;20247;-73
2022/05/18 09:39:58;;;;;;;4.70;2.30;;;27.30;89.20;;;;;;5088151;28;20048;-73
2022/05/18 09:42:28;;;;;;;4.30;2.40;;;27.30;90.10;;;;;;5072754;28;20051;-73
2022/05/18 09:45:08;;;;;;;5.40;2.75;;;27.20;90.70;;;;;;5072571;28;20044;-73
2022/05/18 09:47:44;;;;;;;3.33;1.60;;;27.00;90.10;;;;;;5089500;28;20127;-73
2022/05/18 09:50:11;;;;;;;2.83;1.90;;;27.50;91.60;;;;;;5089723;28;20436;-73
2022/05/18 09:52:39;;;;;;;3.03;1.63;;;27.80;90.30;;;;;;5090825;28;20075;-73
2022/05/18 09:55:08;;;;;;;4.35;2.70;;;28.10;90.60;;;;;;5076465;28;20046;-74
2022/05/18 09:57:50;;;;;;;4.22;2.15;;;27.80;89.60;;;;;;5093126;28;20128;-73
2022/05/18 10:00:22;;;;;;;3.90;2.38;;;28.10;89.50;;;;;;5094227;28;20513;-73
2022/05/18 10:09:15;;;;;;;3.70;1.80;;;28.40;89.10;;;;;;5093024;28;20059;-73
2022/05/18 10:11:42;;;;;;;3.53;2.15;;;28.60;88.00;;;;;;5093138;28;20062;-73
2022/05/18 10:14:14;;;;;;;3.42;1.95;;;28.40;86.80;;;;;;5092925;28;20048;-74
2022/05/18 10:16:48;;;;;;;4.28;2.60;;;28.30;86.70;;;;;;5093202;28;20474;-73
2022/05/18 10:19:29;;;;;;;2.95;1.92;;;28.30;86.60;;;;;;5092913;28;20052;-74
2022/05/18 10:22:02;;;;;;;5.38;2.80;;;28.60;87.70;;;;;;5076554;28;20050;-74
2022/05/18 10:24:47;;;;;;;4.40;2.35;;;28.30;87.50;;;;;;5092589;28;20161;-73
2022/05/18 10:27:16;;;;;;;6.38;2.35;;;28.10;88.30;;;;;;5092874;28;20028;-74
2022/05/18 10:29:44;;;;;;;5.53;3.05;;;28.10;87.20;;;;;;5075794;28;20050;-74
2022/05/18 10:32:22;;;;;;;4.70;2.60;;;27.90;87.20;;;;;;5092497;28;20044;-73
2022/05/18 10:34:51;;;;;;;3.90;2.13;;;27.90;87.00;;;;;;5092683;28;20472;-74
2022/05/18 10:37:29;;;;;;;3.70;2.00;;;28.20;86.90;;;;;;5092335;28;20046;-73
2022/05/18 10:40:07;;;;;;;5.30;3.00;;;28.40;88.00;;;;;;5092320;28;20109;-74
2022/05/18 10:42:52;;;;;;;5.68;2.42;;;28.40;87.30;;;;;;5092430;28;20043;-74
2022/05/18 10:45:27;;;;;;;4.97;2.08;;;28.80;88.70;;;;;;5092412;28;20491;-74
2022/05/18 10:48:24;;;;;;;3.88;2.65;;;29.00;86.70;;;;;;5075495;28;20036;-73
2022/05/18 10:51:09;;;;;;;6.47;4.07;;;29.00;88.00;;;;;;5087850;28;20056;-74
2022/05/18 10:53:45;;;;;;;6.53;3.38;;;28.80;88.30;;;;;;5092518;28;20054;-73
2022/05/18 10:56:12;;;;;;;;;;;28.90;89.60;;;;;;5092758;28;20457;-74
2022/05/18 10:59:09;;;;;;;6.80;4.53;;;28.90;89.90;;;;;;5126209;27;20352;-74
2022/05/18 11:01:45;;;;;;;7.28;3.17;;;28.50;89.00;;;;;;5091684;28;20064;-74
2022/05/18 11:04:17;;;;;;;3.85;2.70;;;28.80;90.00;;;;;;5075026;28;20044;-74
2022/05/18 11:06:43;;;;;;;4.60;3.38;;;29.00;90.20;;;;;;5092097;28;20059;-74
2022/05/18 11:09:21;;;;;;;3.55;2.72;;;29.20;89.70;;;;;;5091921;28;20395;-74
2022/05/18 11:12:26;;;;;;;3.90;2.33;;;29.10;89.30;;;;;;5091718;28;20459;-74
2022/05/18 11:15:05;;;;;;;4.35;3.03;;;29.40;90.70;;;;;;5088618;28;20052;-74
2022/05/18 11:18:04;;;;;;;5.25;3.40;;;29.60;90.30;;;;;;5091679;28;20044;-73
2022/05/18 11:21:05;;;;;;;5.68;3.70;;;29.60;88.10;;;;;;5074663;28;20040;-73
2022/05/18 11:23:51;;;;;;;4.32;3.50;;;29.30;88.20;;;;;;5091472;28;20396;-73
2022/05/18 11:26:54;;;;;;;6.38;3.55;;;29.00;88.80;;;;;;5074970;28;20040;-74
2022/05/18 11:29:44;;;;;;;6.93;4.03;;;29.10;89.90;;;;;;5074518;28;20050;-74
2022/05/18 11:32:33;;;;;;;4.68;2.95;;;29.00;90.10;;;;;;5091347;28;20105;-74
2022/05/18 11:35:04;;;;;;;4.45;3.33;;;29.40;89.70;;;;;;5098345;28;20503;-73
2022/05/18 11:37:57;;;;;;;6.53;5.13;;;29.70;89.20;;;;;;5092620;28;20055;-74
2022/05/18 11:40:55;;;;;;;8.15;5.40;;;29.30;89.00;;;;;;5125336;27;20407;-74
2022/05/18 11:43:57;;;;;;;7.65;5.18;;;28.60;90.00;;;;;;5107364;28;20052;-74
2022/05/18 11:46:31;;;;;;;7.95;5.47;;;28.50;90.10;;;;;;5090978;28;20052;-73
2022/05/18 11:49:19;;;;;;;7.82;4.85;;;28.30;91.20;;;;;;5091149;28;20050;-73
2022/05/18 11:52:03;;;;;;;4.90;3.83;;;28.60;91.00;;;;;;5091018;28;20086;-74
2022/05/18 11:54:41;;;;;;;6.15;4.10;;;28.50;91.10;;;;;;5090964;28;20073;-73
2022/05/18 11:57:40;;;;;;;4.10;3.20;;;28.80;91.10;;;;;;5090910;28;20487;-73
2022/05/18 12:00:50;;;;;;;6.57;4.90;;;29.20;91.10;;;;;;5090740;28;20051;-73
2022/05/18 12:03:35;;;;;;;5.38;3.90;;;28.80;91.10;;;;;;5091107;28;20044;-73
2022/05/18 12:06:49;;;;;;;11.85;5.80;;;29.10;91.80;;;;;;5090780;28;20051;-73
2022/05/18 12:09:18;;;;;;;5.78;4.10;;;28.60;91.50;;;;;;5091799;28;20070;-73
2022/05/18 12:11:56;;;;;;;6.40;4.40;;;28.70;91.70;;;;;;5090931;28;20383;-74
2022/05/18 12:14:39;;;;;;;5.35;3.95;;;28.80;91.50;;;;;;5091917;28;20447;-74
2022/05/18 12:17:12;;;;;;;4.78;3.83;;;28.90;91.90;;;;;;5090742;28;20107;-74
2022/05/18 12:19:43;;;;;;;3.97;2.70;;;29.30;91.20;;;;;;5073472;28;20039;-73
2022/05/18 12:22:13;;;;;;;5.68;3.60;;;30.00;90.90;;;;;;5090289;28;20054;-74
2022/05/18 12:24:43;;;;;;;7.82;4.75;;;30.10;90.90;;;;;;5090513;28;20044;-74
2022/05/18 12:27:10;;;;;;;4.07;3.15;;;29.90;90.90;;;;;;5090527;28;20051;-74
2022/05/18 12:29:37;;;;;;;4.25;3.17;;;30.20;90.50;;;;;;5073507;28;20044;-74
2022/05/18 12:32:04;;;;;;;6.28;2.92;;;29.80;90.40;;;;;;5090222;28;20122;-74
2022/05/18 12:34:33;;;;;;;4.10;2.70;;;30.10;91.30;;;;;;5090381;28;20131;-74
2022/05/18 12:37:08;;;;;;;4.85;2.80;;;30.50;90.90;;;;;;5090485;28;20075;-74
2022/05/18 12:39:44;;;;;;;4.03;2.33;;;30.50;90.60;;;;;;5090299;28;20390;-74
2022/05/18 12:42:15;;;;;;;3.85;3.28;;;30.00;90.20;;;;;;5090189;28;20286;-74
2022/05/18 12:45:15;;;;;;;3.65;2.50;;;29.20;90.70;;;;;;5090236;28;20044;-74
2022/05/18 12:47:52;;;;;;;4.57;2.55;;;28.50;91.50;;;;;;5112504;27;20372;-73
2022/05/18 12:50:35;;;;;;;7.10;4.25;;;27.90;92.30;;;;;;5090142;28;20135;-74
2022/05/18 12:53:19;;;;;;;4.00;2.70;;;27.50;93.40;;;;;;5089887;28;20052;-74
2022/05/18 12:55:58;;;;;;;4.15;3.03;;;27.40;94.00;;;;;;5089877;28;20044;-74
2022/05/18 12:58:41;;;;;;;5.55;3.92;;;27.20;95.10;;;;;;5091712;28;20032;-74
2022/05/18 13:01:15;;;;;;;4.15;3.00;;;27.20;95.30;;;;;;5091173;28;20556;-74
2022/05/18 13:03:50;;;;;;;4.47;2.70;;;27.20;95.60;;;;;;5089868;28;20124;-74
2022/05/18 13:06:23;;;;;;;5.78;4.15;;;27.50;95.50;;;;;;5073156;28;20586;-74
2022/05/18 13:08:59;;;;;;;5.05;2.95;;;27.30;95.40;;;;;;5089919;28;20513;-74
2022/05/18 13:11:33;;;;;;;8.88;3.60;;;27.40;95.70;;;;;;5090215;28;20461;-74
2022/05/18 13:13:58;;;;;;;7.78;5.00;;;27.20;95.90;;;;;;5090063;28;20519;-74
2022/05/18 13:16:39;;;;;;;8.02;5.05;;;26.90;96.10;;;;;;5089875;28;20139;-74
2022/05/18 13:19:14;;;;;;;6.55;4.40;;;26.60;97.70;;;;;;5089758;28;20067;-74
2022/05/18 13:21:44;;;;;;;6.47;4.22;;;26.50;98.70;;;;;;5089989;28;20502;-74
2022/05/18 13:24:35;;;;;;;8.50;5.97;;;26.50;98.90;;;;;;5072996;28;20040;-74
2022/05/18 13:27:30;;;;;;;8.05;5.38;;;26.20;98.90;;;;;;5089866;28;20044;-74
2022/05/18 13:29:59;;;;;;;11.48;8.23;;;26.40;99.90;;;;;;5127069;27;20154;-74